createdAt,value
2018-12-31T00:02:16.777Z,70.27
2018-12-31T00:04:42.785Z,70.26
2018-12-31T00:07:09.326Z,70.21
2018-12-31T00:09:35.600Z,70.19
2018-12-31T00:12:01.602Z,70.24
2018-12-31T00:14:27.623Z,70.19
2018-12-31T00:16:53.514Z,70.12
2018-12-31T00:19:19.462Z,70.26
2018-12-31T00:21:45.502Z,70.22
2018-12-31T00:24:11.430Z,70.18
2018-12-31T00:26:37.329Z,70.12
2018-12-31T00:29:03.262Z,69.96
2018-12-31T00:31:29.180Z,70.11
2018-12-31T00:33:55.116Z,70.30
2018-12-31T00:36:21.034Z,70.33
2018-12-31T00:38:46.944Z,70.31
2018-12-31T00:41:12.929Z,70.21
2018-12-31T00:43:38.894Z,70.20
2018-12-31T00:46:04.801Z,70.18
2018-12-31T00:48:30.701Z,70.22
2018-12-31T00:50:56.639Z,70.11
2018-12-31T00:53:22.556Z,70.19
2018-12-31T00:55:48.493Z,70.30
2018-12-31T00:58:14.389Z,70.29
2018-12-31T01:00:40.507Z,70.22
2018-12-31T01:03:06.540Z,70.18
2018-12-31T01:05:32.430Z,70.17
2018-12-31T01:07:58.677Z,70.07
2018-12-31T01:10:25.055Z,70.07
2018-12-31T01:12:50.987Z,70.11
2018-12-31T01:15:16.889Z,70.33
2018-12-31T01:17:42.795Z,70.38
2018-12-31T01:20:08.796Z,70.33
2018-12-31T01:22:34.866Z,70.37
2018-12-31T01:25:00.975Z,70.42
2018-12-31T01:27:26.900Z,70.45
2018-12-31T01:29:52.835Z,70.43
2018-12-31T01:32:18.749Z,70.44
2018-12-31T01:34:44.772Z,70.39
2018-12-31T01:37:10.788Z,70.24
2018-12-31T01:39:36.684Z,70.09
2018-12-31T01:42:02.818Z,70.02
2018-12-31T01:44:28.826Z,70.04
2018-12-31T01:46:54.849Z,70.07
2018-12-31T01:49:20.763Z,70.08
2018-12-31T01:51:46.676Z,70.18
2018-12-31T01:54:12.567Z,70.17
2018-12-31T01:56:38.503Z,70.01
2018-12-31T01:59:04.521Z,70.01
2018-12-31T02:01:30.524Z,69.92
2018-12-31T02:03:56.453Z,69.98
2018-12-31T02:06:22.468Z,70.03
2018-12-31T02:08:48.690Z,70.10
2018-12-31T02:11:14.830Z,70.24
2018-12-31T02:13:40.757Z,70.32
2018-12-31T02:16:06.657Z,70.33
2018-12-31T02:18:32.568Z,70.28
2018-12-31T02:20:58.575Z,70.22
2018-12-31T02:23:24.547Z,70.04
2018-12-31T02:25:50.459Z,70.04
2018-12-31T02:28:16.406Z,70.05
2018-12-31T02:30:42.806Z,70.02
2018-12-31T02:33:08.713Z,69.98
2018-12-31T02:35:34.920Z,69.90
2018-12-31T02:38:00.921Z,69.83
2018-12-31T02:40:26.955Z,69.69
2018-12-31T02:42:52.843Z,69.70
2018-12-31T02:45:18.858Z,69.69
2018-12-31T02:47:44.879Z,69.84
2018-12-31T02:50:10.892Z,69.90
2018-12-31T02:52:36.921Z,69.81
2018-12-31T02:55:03.238Z,69.77
2018-12-31T02:57:29.151Z,69.68
2018-12-31T02:59:55.086Z,69.67
2018-12-31T03:02:20.984Z,69.87
2018-12-31T03:04:46.972Z,70.01
2018-12-31T03:07:12.918Z,69.95
2018-12-31T03:09:39.017Z,69.97
2018-12-31T03:12:05.207Z,69.99
2018-12-31T03:14:31.131Z,70.03
2018-12-31T03:16:57.186Z,70.06
2018-12-31T03:19:23.069Z,69.93
2018-12-31T03:21:48.978Z,70.01
2018-12-31T03:24:14.903Z,70.01
2018-12-31T03:26:40.865Z,69.94
2018-12-31T03:29:06.772Z,69.92
2018-12-31T03:31:32.696Z,69.81
2018-12-31T03:33:58.691Z,69.70
2018-12-31T03:36:24.691Z,69.68
2018-12-31T03:38:50.661Z,69.81
2018-12-31T03:41:16.680Z,69.81
2018-12-31T03:43:42.672Z,69.99
2018-12-31T03:46:08.708Z,70.02
2018-12-31T03:48:34.604Z,70.00
2018-12-31T03:51:00.554Z,69.94
2018-12-31T03:53:26.462Z,69.88
2018-12-31T03:55:52.469Z,69.78
2018-12-31T03:58:18.399Z,69.73
2018-12-31T04:00:44.276Z,69.69
2018-12-31T04:03:10.202Z,69.62
2018-12-31T04:05:36.212Z,69.65
2018-12-31T04:08:02.317Z,69.62
2018-12-31T04:10:28.783Z,69.69
2018-12-31T04:12:55.070Z,69.74
2018-12-31T04:15:21.110Z,69.71
2018-12-31T04:17:47.013Z,69.83
2018-12-31T04:20:12.912Z,69.86
2018-12-31T04:22:38.858Z,69.92
2018-12-31T04:25:04.970Z,69.87
2018-12-31T04:27:30.973Z,69.84
2018-12-31T04:29:56.901Z,69.77
2018-12-31T04:32:22.839Z,69.73
2018-12-31T04:34:48.777Z,69.66
2018-12-31T04:37:14.656Z,69.68
2018-12-31T04:39:40.647Z,69.63
2018-12-31T04:42:06.606Z,69.77
2018-12-31T04:44:32.486Z,69.86
2018-12-31T04:46:58.408Z,69.96
2018-12-31T04:49:24.341Z,69.96
2018-12-31T04:51:50.467Z,69.80
2018-12-31T04:54:16.347Z,69.85
2018-12-31T04:56:42.393Z,69.87
2018-12-31T04:59:08.325Z,69.87
2018-12-31T05:01:34.211Z,70.01
2018-12-31T05:04:00.166Z,70.02
2018-12-31T05:06:26.068Z,70.06
2018-12-31T05:08:52.158Z,70.03
2018-12-31T05:11:18.404Z,69.95
2018-12-31T05:13:44.784Z,69.90
2018-12-31T05:16:10.852Z,70.01
2018-12-31T05:18:36.718Z,70.00
2018-12-31T05:21:02.836Z,69.93
2018-12-31T05:23:28.865Z,69.85
2018-12-31T05:25:54.812Z,69.72
2018-12-31T05:28:20.750Z,69.65
2018-12-31T05:30:46.658Z,69.79
2018-12-31T05:33:12.693Z,69.86
2018-12-31T05:35:38.591Z,70.01
2018-12-31T05:38:04.591Z,69.98
2018-12-31T05:40:30.510Z,69.94
2018-12-31T05:42:56.432Z,69.98
2018-12-31T05:45:22.340Z,69.96
2018-12-31T05:47:48.248Z,69.94
2018-12-31T05:50:14.274Z,69.84
2018-12-31T05:52:40.192Z,69.86
2018-12-31T05:55:06.209Z,69.82
2018-12-31T05:57:32.138Z,69.75
2018-12-31T05:59:58.066Z,69.77
2018-12-31T06:02:23.971Z,69.84
2018-12-31T06:04:49.911Z,69.83
2018-12-31T06:07:16.142Z,69.82
2018-12-31T06:09:42.161Z,69.68
2018-12-31T06:12:08.268Z,69.67
2018-12-31T06:14:34.354Z,69.80
2018-12-31T06:17:00.297Z,69.93
2018-12-31T06:19:26.188Z,69.87
2018-12-31T06:21:52.223Z,69.93
2018-12-31T06:24:18.157Z,69.91
2018-12-31T06:26:44.063Z,69.91
2018-12-31T06:29:09.980Z,69.91
2018-12-31T06:31:35.888Z,69.87
2018-12-31T06:34:01.923Z,69.91
2018-12-31T06:36:27.803Z,69.86
2018-12-31T06:38:53.737Z,69.86
2018-12-31T06:41:19.684Z,69.84
2018-12-31T06:43:45.566Z,69.83
2018-12-31T06:46:11.481Z,69.83
2018-12-31T06:48:37.378Z,69.82
2018-12-31T06:51:03.432Z,69.84
2018-12-31T06:53:29.454Z,69.81
2018-12-31T06:55:55.364Z,69.85
2018-12-31T06:58:21.361Z,69.87
2018-12-31T07:00:47.401Z,69.95
2018-12-31T07:03:13.343Z,69.95
2018-12-31T07:05:39.383Z,69.95
2018-12-31T07:08:05.405Z,69.93
2018-12-31T07:10:31.313Z,69.87
2018-12-31T07:12:57.456Z,69.89
2018-12-31T07:15:23.737Z,69.93
2018-12-31T07:17:49.776Z,69.97
2018-12-31T07:20:15.750Z,69.91
2018-12-31T07:22:41.970Z,69.94
2018-12-31T07:25:07.981Z,70.02
2018-12-31T07:27:33.952Z,70.01
2018-12-31T07:29:59.962Z,70.04
2018-12-31T07:32:25.961Z,70.06
2018-12-31T07:34:51.986Z,70.08
2018-12-31T07:37:17.894Z,70.11
2018-12-31T07:39:43.904Z,70.21
2018-12-31T07:42:09.817Z,70.27
2018-12-31T07:44:35.783Z,70.32
2018-12-31T07:47:01.698Z,70.39
2018-12-31T07:49:27.584Z,70.42
2018-12-31T07:51:53.540Z,70.49
2018-12-31T07:54:19.485Z,70.54
2018-12-31T07:56:45.402Z,70.65
2018-12-31T07:59:11.329Z,70.59
2018-12-31T08:01:37.220Z,70.62
2018-12-31T08:04:03.126Z,70.69
2018-12-31T08:06:29.028Z,70.77
2018-12-31T08:08:54.960Z,70.85
2018-12-31T08:11:20.845Z,70.92
2018-12-31T08:13:47.050Z,70.96
2018-12-31T08:16:13.146Z,71.00
2018-12-31T08:18:39.208Z,71.07
2018-12-31T08:21:05.120Z,71.15
2018-12-31T08:23:31.121Z,71.19
2018-12-31T08:25:57.078Z,71.26
2018-12-31T08:28:22.988Z,71.32
2018-12-31T08:30:48.907Z,71.40
2018-12-31T08:33:14.847Z,71.49
2018-12-31T08:35:40.748Z,71.71
2018-12-31T08:38:06.752Z,71.87
2018-12-31T08:40:32.803Z,71.90
2018-12-31T08:42:58.723Z,72.01
2018-12-31T08:45:24.652Z,71.98
2018-12-31T08:47:50.601Z,71.92
2018-12-31T08:50:16.493Z,71.64
2018-12-31T08:52:42.392Z,71.49
2018-12-31T08:55:08.332Z,71.55
2018-12-31T08:57:34.317Z,71.75
2018-12-31T09:00:00.268Z,71.99
2018-12-31T09:02:26.299Z,71.98
2018-12-31T09:04:52.306Z,72.04
2018-12-31T09:07:18.227Z,72.17
2018-12-31T09:09:44.145Z,72.41
2018-12-31T09:12:10.146Z,72.62
2018-12-31T09:14:36.379Z,72.90
2018-12-31T09:17:02.609Z,73.08
2018-12-31T09:19:28.512Z,73.41
2018-12-31T09:21:54.529Z,73.67
2018-12-31T09:24:20.468Z,74.03
2018-12-31T09:26:46.371Z,74.03
2018-12-31T09:29:12.429Z,74.78
2018-12-31T09:31:38.352Z,74.78
2018-12-31T09:34:04.303Z,75.22
2018-12-31T09:36:30.216Z,75.39
2018-12-31T09:38:56.276Z,75.65
2018-12-31T09:41:22.226Z,75.74
2018-12-31T09:43:48.127Z,75.78
2018-12-31T09:46:14.212Z,75.97
2018-12-31T09:48:40.238Z,76.16
2018-12-31T09:51:06.163Z,76.24
2018-12-31T09:53:32.106Z,76.29
2018-12-31T09:55:58.011Z,76.31
2018-12-31T09:58:24.121Z,76.26
2018-12-31T10:00:50.178Z,76.31
2018-12-31T10:03:16.090Z,76.46
2018-12-31T10:05:42.078Z,76.52
2018-12-31T10:08:08.099Z,76.53
2018-12-31T10:10:34.106Z,76.49
2018-12-31T10:13:00.037Z,76.56
2018-12-31T10:15:27.383Z,76.59
2018-12-31T10:17:53.424Z,76.64
2018-12-31T10:20:19.458Z,76.70
2018-12-31T10:22:45.385Z,76.66
2018-12-31T10:25:11.401Z,76.68
2018-12-31T10:27:37.315Z,76.63
2018-12-31T10:30:03.410Z,76.69
2018-12-31T10:32:29.337Z,76.72
2018-12-31T10:34:55.215Z,76.67
2018-12-31T10:37:22.199Z,76.68
2018-12-31T10:39:48.266Z,76.67
2018-12-31T10:42:14.288Z,76.68
2018-12-31T10:44:40.279Z,76.66
2018-12-31T10:47:06.350Z,76.66
2018-12-31T10:49:32.473Z,76.66
2018-12-31T10:51:58.380Z,76.64
2018-12-31T10:54:24.309Z,76.65
2018-12-31T10:56:50.243Z,76.72
2018-12-31T10:59:16.130Z,76.82
2018-12-31T11:01:42.029Z,77.03
2018-12-31T11:04:07.953Z,77.29
2018-12-31T11:06:33.989Z,77.43
2018-12-31T11:09:00.177Z,77.62
2018-12-31T11:11:26.205Z,77.85
2018-12-31T11:13:52.123Z,78.08
2018-12-31T11:16:18.151Z,78.24
2018-12-31T11:18:44.293Z,78.38
2018-12-31T11:21:10.182Z,78.55
2018-12-31T11:23:36.097Z,78.72
2018-12-31T11:26:02.207Z,78.88
2018-12-31T11:28:28.178Z,79.00
2018-12-31T11:30:54.096Z,79.22
2018-12-31T11:33:19.999Z,79.41
2018-12-31T11:35:45.933Z,79.55
2018-12-31T11:38:11.840Z,79.67
2018-12-31T11:40:37.988Z,79.87
2018-12-31T11:43:04.090Z,80.02
2018-12-31T11:45:29.987Z,80.22
2018-12-31T11:47:55.991Z,80.38
2018-12-31T11:50:22.012Z,80.44
2018-12-31T11:52:47.958Z,80.48
2018-12-31T11:55:13.845Z,80.56
2018-12-31T11:57:39.733Z,80.66
2018-12-31T12:00:07.684Z,80.69
2018-12-31T12:02:33.687Z,80.74
2018-12-31T12:04:59.611Z,80.90
2018-12-31T12:07:25.513Z,80.90
2018-12-31T12:09:51.449Z,80.95
2018-12-31T12:12:17.723Z,81.02
2018-12-31T12:14:43.666Z,81.14
2018-12-31T12:17:09.771Z,81.22
2018-12-31T12:19:35.937Z,81.26
2018-12-31T12:22:01.992Z,81.22
2018-12-31T12:24:27.912Z,81.27
2018-12-31T12:26:53.852Z,81.31
2018-12-31T12:29:19.772Z,81.37
2018-12-31T12:31:45.782Z,81.42
2018-12-31T12:34:11.691Z,81.44
2018-12-31T12:36:37.596Z,81.56
2018-12-31T12:39:04.960Z,81.69
2018-12-31T12:41:30.853Z,81.79
2018-12-31T12:43:57.059Z,81.87
2018-12-31T12:46:22.948Z,81.99
2018-12-31T12:48:49.005Z,82.17
2018-12-31T12:51:14.922Z,82.24
2018-12-31T12:53:40.930Z,82.30
2018-12-31T12:56:06.862Z,82.40
2018-12-31T12:58:32.974Z,82.51
2018-12-31T13:00:58.887Z,82.60
2018-12-31T13:03:25.028Z,82.69
2018-12-31T13:05:51.161Z,82.76
2018-12-31T13:08:17.182Z,82.78
2018-12-31T13:10:43.225Z,82.80
2018-12-31T13:13:09.112Z,82.85
2018-12-31T13:15:35.021Z,82.86
2018-12-31T13:18:01.301Z,82.78
2018-12-31T13:20:27.402Z,82.78
2018-12-31T13:22:53.292Z,82.75
2018-12-31T13:25:19.210Z,82.71
2018-12-31T13:27:45.140Z,82.72
2018-12-31T13:30:11.511Z,82.72
2018-12-31T13:32:37.422Z,82.70
2018-12-31T13:35:04.146Z,82.71
2018-12-31T13:37:30.067Z,82.62
2018-12-31T13:39:55.949Z,82.63
2018-12-31T13:42:22.033Z,82.60
2018-12-31T13:44:48.293Z,82.54
2018-12-31T13:47:14.242Z,82.51
2018-12-31T13:49:40.181Z,82.46
2018-12-31T13:52:06.064Z,82.46
2018-12-31T13:54:31.992Z,82.51
2018-12-31T13:56:57.935Z,82.49
2018-12-31T13:59:23.885Z,82.57
2018-12-31T14:01:49.889Z,82.52
2018-12-31T14:04:15.819Z,82.49
2018-12-31T14:06:41.716Z,82.49
2018-12-31T14:09:07.722Z,82.42
2018-12-31T14:11:33.724Z,82.41
2018-12-31T14:13:59.747Z,82.41
2018-12-31T14:16:25.771Z,82.39
2018-12-31T14:18:52.470Z,82.45
2018-12-31T14:21:18.573Z,82.29
2018-12-31T14:23:44.473Z,82.40
2018-12-31T14:26:10.493Z,82.37
2018-12-31T14:28:36.513Z,82.34
2018-12-31T14:31:02.932Z,82.31
2018-12-31T14:33:28.949Z,82.30
2018-12-31T14:35:54.995Z,82.30
2018-12-31T14:38:20.949Z,82.27
2018-12-31T14:40:46.869Z,82.23
2018-12-31T14:43:12.771Z,82.25
2018-12-31T14:45:38.858Z,82.17
2018-12-31T14:48:04.861Z,82.24
2018-12-31T14:50:30.785Z,82.22
2018-12-31T14:52:56.831Z,82.27
2018-12-31T14:55:22.737Z,82.32
2018-12-31T14:57:48.757Z,82.29
2018-12-31T15:00:14.763Z,82.29
2018-12-31T15:02:41.037Z,82.34
2018-12-31T15:05:07.119Z,82.36
2018-12-31T15:07:33.121Z,82.46
2018-12-31T15:09:59.070Z,82.46
2018-12-31T15:12:24.951Z,82.45
2018-12-31T15:14:50.886Z,82.50
2018-12-31T15:17:17.244Z,82.51
2018-12-31T15:19:43.433Z,82.45
2018-12-31T15:22:09.560Z,82.48
2018-12-31T15:24:35.673Z,82.49
2018-12-31T15:27:01.685Z,82.49
2018-12-31T15:29:27.704Z,82.49
2018-12-31T15:31:53.640Z,82.54
2018-12-31T15:34:19.536Z,82.62
2018-12-31T15:36:45.560Z,82.59
2018-12-31T15:39:11.468Z,82.59
2018-12-31T15:41:37.398Z,82.56
2018-12-31T15:44:03.431Z,82.56
2018-12-31T15:46:29.351Z,82.58
2018-12-31T15:48:55.628Z,82.59
2018-12-31T15:51:21.540Z,82.65
2018-12-31T15:53:47.492Z,82.65
2018-12-31T15:56:13.450Z,82.62
2018-12-31T15:58:39.331Z,82.62
2018-12-31T16:01:05.215Z,82.64
2018-12-31T16:03:31.142Z,82.69
2018-12-31T16:05:57.362Z,82.73
2018-12-31T16:08:23.292Z,82.71
2018-12-31T16:10:49.211Z,82.73
2018-12-31T16:13:15.163Z,82.76
2018-12-31T16:15:41.168Z,82.77
2018-12-31T16:18:07.211Z,82.74
2018-12-31T16:20:33.931Z,82.77
2018-12-31T16:23:00.023Z,82.77
2018-12-31T16:25:26.041Z,82.76
2018-12-31T16:27:51.951Z,82.81
2018-12-31T16:30:17.847Z,82.77
2018-12-31T16:32:43.857Z,82.78
2018-12-31T16:35:09.807Z,82.71
2018-12-31T16:37:35.796Z,82.75
2018-12-31T16:40:01.692Z,82.76
2018-12-31T16:42:27.633Z,82.74
2018-12-31T16:44:53.518Z,82.73
2018-12-31T16:47:19.447Z,82.73
2018-12-31T16:49:45.485Z,82.76
2018-12-31T16:52:11.592Z,82.71
2018-12-31T16:54:37.503Z,82.71
2018-12-31T16:57:05.183Z,82.71
2018-12-31T16:59:31.196Z,82.68
2018-12-31T17:01:57.095Z,82.74
2018-12-31T17:04:23.001Z,82.73
2018-12-31T17:06:48.909Z,82.70
2018-12-31T17:09:14.839Z,82.72
2018-12-31T17:11:40.729Z,82.74
2018-12-31T17:14:06.649Z,82.74
2018-12-31T17:16:32.549Z,82.76
2018-12-31T17:18:58.488Z,82.75
2018-12-31T17:21:24.668Z,82.72
2018-12-31T17:23:50.878Z,82.73
2018-12-31T17:26:16.761Z,82.70
2018-12-31T17:28:42.648Z,82.71
2018-12-31T17:31:08.581Z,82.67
2018-12-31T17:33:34.624Z,82.65
2018-12-31T17:36:00.631Z,82.68
2018-12-31T17:38:26.512Z,82.70
2018-12-31T17:40:53.044Z,82.75
2018-12-31T17:43:18.957Z,82.76
2018-12-31T17:45:44.911Z,82.74
2018-12-31T17:48:10.957Z,82.71
2018-12-31T17:50:36.832Z,82.69
2018-12-31T17:53:02.885Z,82.69
2018-12-31T17:55:28.821Z,82.70
2018-12-31T17:57:54.767Z,82.65
2018-12-31T18:00:20.671Z,82.59
2018-12-31T18:02:46.631Z,82.62
2018-12-31T18:05:12.684Z,82.62
2018-12-31T18:07:38.586Z,82.61
2018-12-31T18:10:06.548Z,82.62
2018-12-31T18:12:32.844Z,82.65
2018-12-31T18:14:58.723Z,82.65
2018-12-31T18:17:24.939Z,82.65
2018-12-31T18:19:50.949Z,82.67
2018-12-31T18:22:17.056Z,82.68
2018-12-31T18:24:43.357Z,82.70
2018-12-31T18:27:09.293Z,82.71
2018-12-31T18:29:35.292Z,82.70
2018-12-31T18:32:01.354Z,82.76
2018-12-31T18:34:27.292Z,82.67
2018-12-31T18:36:53.295Z,82.73
2018-12-31T18:39:19.223Z,82.80
2018-12-31T18:41:45.229Z,82.79
2018-12-31T18:44:11.535Z,82.83
2018-12-31T18:46:37.438Z,82.89
2018-12-31T18:49:03.464Z,82.92
2018-12-31T18:51:29.366Z,82.92
2018-12-31T18:53:55.272Z,82.91
2018-12-31T18:56:21.415Z,82.93
2018-12-31T18:58:47.324Z,82.93
2018-12-31T19:01:13.249Z,82.97
2018-12-31T19:03:39.390Z,82.96
2018-12-31T19:06:05.401Z,82.96
2018-12-31T19:08:33.173Z,83.00
2018-12-31T19:10:59.213Z,83.00
2018-12-31T19:13:25.198Z,83.01
2018-12-31T19:15:51.414Z,83.03
2018-12-31T19:18:17.298Z,83.07
2018-12-31T19:20:43.227Z,83.06
2018-12-31T19:23:09.343Z,83.13
2018-12-31T19:25:35.478Z,83.14
2018-12-31T19:28:01.426Z,83.12
2018-12-31T19:30:27.505Z,83.15
2018-12-31T19:32:53.711Z,83.20
2018-12-31T19:35:19.647Z,83.21
2018-12-31T19:37:45.588Z,83.20
2018-12-31T19:40:11.507Z,83.13
2018-12-31T19:42:37.463Z,83.11
2018-12-31T19:45:03.644Z,83.09
2018-12-31T19:47:29.548Z,83.16
2018-12-31T19:49:55.470Z,83.22
2018-12-31T19:52:21.367Z,83.25
2018-12-31T19:54:47.284Z,83.31
2018-12-31T19:57:13.314Z,83.32
2018-12-31T19:59:39.230Z,83.32
2018-12-31T20:02:05.261Z,83.26
2018-12-31T20:04:31.474Z,83.13
2018-12-31T20:07:01.301Z,83.23
2018-12-31T20:09:25.358Z,83.16
2018-12-31T20:11:51.425Z,83.26
2018-12-31T20:14:17.455Z,83.29
2018-12-31T20:16:43.339Z,83.21
2018-12-31T20:19:09.261Z,83.30
2018-12-31T20:21:35.486Z,83.33
2018-12-31T20:24:01.656Z,83.32
2018-12-31T20:26:27.811Z,83.32
2018-12-31T20:28:53.727Z,83.37
2018-12-31T20:31:19.754Z,83.34
2018-12-31T20:33:45.748Z,83.40
2018-12-31T20:36:11.689Z,83.39
2018-12-31T20:38:37.985Z,83.39
2018-12-31T20:41:04.030Z,83.34
2018-12-31T20:43:29.942Z,83.36
2018-12-31T20:45:55.921Z,83.43
2018-12-31T20:48:21.844Z,83.45
2018-12-31T20:50:47.775Z,83.45
2018-12-31T20:53:13.691Z,83.47
2018-12-31T20:55:39.608Z,83.48
2018-12-31T20:58:05.553Z,83.52
2018-12-31T21:00:31.462Z,83.54
2018-12-31T21:02:57.389Z,83.59
2018-12-31T21:05:23.334Z,83.63
2018-12-31T21:07:49.343Z,83.62
2018-12-31T21:10:15.233Z,83.62
2018-12-31T21:12:41.653Z,83.62
2018-12-31T21:15:07.679Z,83.67
2018-12-31T21:17:33.580Z,83.68
2018-12-31T21:19:59.615Z,83.69
2018-12-31T21:22:25.665Z,83.72
2018-12-31T21:24:51.857Z,83.78
2018-12-31T21:27:17.997Z,83.85
2018-12-31T21:29:44.249Z,83.84
2018-12-31T21:32:10.176Z,83.79
2018-12-31T21:34:36.079Z,83.76
2018-12-31T21:37:02.210Z,83.75
2018-12-31T21:39:28.091Z,83.77
2018-12-31T21:41:54.038Z,83.85
2018-12-31T21:44:19.960Z,83.91
2018-12-31T21:46:46.084Z,83.87
2018-12-31T21:49:11.977Z,83.87
2018-12-31T21:51:37.886Z,83.88
2018-12-31T21:54:03.809Z,83.92
2018-12-31T21:56:29.706Z,83.88
2018-12-31T21:58:55.647Z,83.82
2018-12-31T22:01:21.674Z,83.92
2018-12-31T22:03:47.808Z,83.97
2018-12-31T22:06:13.821Z,83.86
2018-12-31T22:08:39.776Z,83.97
2018-12-31T22:11:05.785Z,83.92
2018-12-31T22:13:31.698Z,83.96
2018-12-31T22:15:57.614Z,83.96
2018-12-31T22:18:23.732Z,84.03
2018-12-31T22:20:49.674Z,84.03
2018-12-31T22:23:15.612Z,84.02
2018-12-31T22:25:41.695Z,83.95
2018-12-31T22:28:07.758Z,84.07
2018-12-31T22:30:33.709Z,84.05
2018-12-31T22:32:59.698Z,84.02
2018-12-31T22:35:26.004Z,84.00
2018-12-31T22:37:52.728Z,84.11
2018-12-31T22:40:18.710Z,84.21
2018-12-31T22:42:44.672Z,84.18
2018-12-31T22:45:10.576Z,84.16
2018-12-31T22:47:36.487Z,84.25
2018-12-31T22:50:04.208Z,84.26
2018-12-31T22:52:30.144Z,84.17
2018-12-31T22:54:56.086Z,84.25
2018-12-31T22:57:22.088Z,84.25
2018-12-31T22:59:48.090Z,84.26
2018-12-31T23:02:14.012Z,84.19
2018-12-31T23:04:39.936Z,84.08
2018-12-31T23:07:06.169Z,84.05
2018-12-31T23:09:32.199Z,84.03
2018-12-31T23:11:58.083Z,84.07
2018-12-31T23:14:24.071Z,84.07
2018-12-31T23:16:51.053Z,84.18
2018-12-31T23:19:16.939Z,84.19
2018-12-31T23:21:42.865Z,84.21
2018-12-31T23:24:08.772Z,84.05
2018-12-31T23:26:34.969Z,84.10
2018-12-31T23:29:01.025Z,84.10
2018-12-31T23:31:26.983Z,84.12
2018-12-31T23:33:53.101Z,84.17
2018-12-31T23:36:19.132Z,84.18
2018-12-31T23:38:45.161Z,84.14
2018-12-31T23:41:11.108Z,84.04
2018-12-31T23:43:37.036Z,84.14
2018-12-31T23:46:02.952Z,84.06
2018-12-31T23:48:28.903Z,84.08
2018-12-31T23:50:54.879Z,84.10
2018-12-31T23:53:20.913Z,84.06
2018-12-31T23:55:47.034Z,84.08
2018-12-31T23:58:12.908Z,83.95
